sensor_id;sensor_type;location;lat;lon;timestamp;temperature;humidity
20141;DHT22;10231;47.702;9.826;2023-04-06T00:00:31;1.70;99.90
20141;DHT22;10231;47.702;9.826;2023-04-06T00:02:56;1.70;99.90
20141;DHT22;10231;47.702;9.826;2023-04-06T00:05:22;1.60;99.90
20141;DHT22;10231;47.702;9.826;2023-04-06T00:07:48;1.70;99.90
20141;DHT22;10231;47.702;9.826;2023-04-06T00:10:14;1.60;99.90
20141;DHT22;10231;47.702;9.826;2023-04-06T00:12:39;1.60;99.90
20141;DHT22;10231;47.702;9.826;2023-04-06T00:15:06;1.70;99.90
20141;DHT22;10231;47.702;9.826;2023-04-06T00:17:31;1.70;99.90
20141;DHT22;10231;47.702;9.826;2023-04-06T00:19:57;1.70;99.90
20141;DHT22;10231;47.702;9.826;2023-04-06T00:22:22;1.70;99.90
20141;DHT22;10231;47.702;9.826;2023-04-06T00:24:48;1.70;99.90
20141;DHT22;10231;47.702;9.826;2023-04-06T00:27:13;1.70;99.90
20141;DHT22;10231;47.702;9.826;2023-04-06T00:29:39;1.70;99.90
20141;DHT22;10231;47.702;9.826;2023-04-06T00:32:05;1.70;99.90
20141;DHT22;10231;47.702;9.826;2023-04-06T00:34:31;1.80;99.90
20141;DHT22;10231;47.702;9.826;2023-04-06T00:36:56;1.80;99.90
20141;DHT22;10231;47.702;9.826;2023-04-06T00:39:22;1.80;99.90
20141;DHT22;10231;47.702;9.826;2023-04-06T00:41:51;1.70;99.90
20141;DHT22;10231;47.702;9.826;2023-04-06T00:44:18;1.80;99.90
20141;DHT22;10231;47.702;9.826;2023-04-06T00:46:44;1.80;99.90
20141;DHT22;10231;47.702;9.826;2023-04-06T00:49:10;1.80;99.90
20141;DHT22;10231;47.702;9.826;2023-04-06T00:51:35;1.90;99.90
20141;DHT22;10231;47.702;9.826;2023-04-06T00:54:01;1.90;99.90
20141;DHT22;10231;47.702;9.826;2023-04-06T00:56:27;1.90;99.90
20141;DHT22;10231;47.702;9.826;2023-04-06T00:58:53;1.90;99.90
20141;DHT22;10231;47.702;9.826;2023-04-06T01:01:19;1.80;99.90
20141;DHT22;10231;47.702;9.826;2023-04-06T01:03:45;1.90;99.90
20141;DHT22;10231;47.702;9.826;2023-04-06T01:06:14;1.90;99.90
20141;DHT22;10231;47.702;9.826;2023-04-06T01:08:39;1.90;99.90
20141;DHT22;10231;47.702;9.826;2023-04-06T01:11:05;1.80;99.90
20141;DHT22;10231;47.702;9.826;2023-04-06T01:13:30;1.80;99.90
20141;DHT22;10231;47.702;9.826;2023-04-06T01:15:56;1.80;99.90
20141;DHT22;10231;47.702;9.826;2023-04-06T01:18:26;1.70;99.90
20141;DHT22;10231;47.702;9.826;2023-04-06T01:20:52;1.70;99.90
20141;DHT22;10231;47.702;9.826;2023-04-06T01:23:17;1.60;99.90
20141;DHT22;10231;47.702;9.826;2023-04-06T01:25:43;1.60;99.90
20141;DHT22;10231;47.702;9.826;2023-04-06T01:28:08;1.60;99.90
20141;DHT22;10231;47.702;9.826;2023-04-06T01:30:34;1.60;99.90
20141;DHT22;10231;47.702;9.826;2023-04-06T01:33:00;1.50;99.90
20141;DHT22;10231;47.702;9.826;2023-04-06T01:35:26;1.40;99.90
20141;DHT22;10231;47.702;9.826;2023-04-06T01:37:52;1.40;99.90
20141;DHT22;10231;47.702;9.826;2023-04-06T01:40:18;1.40;99.90
20141;DHT22;10231;47.702;9.826;2023-04-06T01:42:43;1.40;99.90
20141;DHT22;10231;47.702;9.826;2023-04-06T01:45:09;1.40;99.90
20141;DHT22;10231;47.702;9.826;2023-04-06T01:47:35;1.40;99.90
20141;DHT22;10231;47.702;9.826;2023-04-06T01:50:00;1.40;99.90
20141;DHT22;10231;47.702;9.826;2023-04-06T01:52:28;1.40;99.90
20141;DHT22;10231;47.702;9.826;2023-04-06T01:54:54;1.30;99.90
20141;DHT22;10231;47.702;9.826;2023-04-06T01:57:20;1.30;99.90
20141;DHT22;10231;47.702;9.826;2023-04-06T01:59:45;1.30;99.90
20141;DHT22;10231;47.702;9.826;2023-04-06T02:02:11;1.30;99.90
20141;DHT22;10231;47.702;9.826;2023-04-06T02:04:38;1.30;99.90
20141;DHT22;10231;47.702;9.826;2023-04-06T02:07:03;1.30;99.90
20141;DHT22;10231;47.702;9.826;2023-04-06T02:09:29;1.20;99.90
20141;DHT22;10231;47.702;9.826;2023-04-06T02:11:55;1.20;99.90
20141;DHT22;10231;47.702;9.826;2023-04-06T02:14:21;1.30;99.90
20141;DHT22;10231;47.702;9.826;2023-04-06T02:16:46;1.40;99.90
20141;DHT22;10231;47.702;9.826;2023-04-06T02:19:12;1.20;99.90
20141;DHT22;10231;47.702;9.826;2023-04-06T02:21:37;1.20;99.90
20141;DHT22;10231;47.702;9.826;2023-04-06T02:24:03;1.30;99.90
20141;DHT22;10231;47.702;9.826;2023-04-06T02:26:28;1.20;99.90
20141;DHT22;10231;47.702;9.826;2023-04-06T02:28:54;1.10;99.90
20141;DHT22;10231;47.702;9.826;2023-04-06T02:31:20;1.10;99.90
20141;DHT22;10231;47.702;9.826;2023-04-06T02:33:46;1.00;99.90
20141;DHT22;10231;47.702;9.826;2023-04-06T02:36:11;1.00;99.90
20141;DHT22;10231;47.702;9.826;2023-04-06T02:38:37;1.10;99.90
20141;DHT22;10231;47.702;9.826;2023-04-06T02:41:02;1.10;99.90
20141;DHT22;10231;47.702;9.826;2023-04-06T02:43:28;1.10;99.90
20141;DHT22;10231;47.702;9.826;2023-04-06T02:45:53;1.10;99.90
20141;DHT22;10231;47.702;9.826;2023-04-06T02:48:19;0.90;99.90
20141;DHT22;10231;47.702;9.826;2023-04-06T02:50:44;0.90;99.90
20141;DHT22;10231;47.702;9.826;2023-04-06T02:53:10;0.90;99.90
20141;DHT22;10231;47.702;9.826;2023-04-06T02:55:35;0.90;99.90
20141;DHT22;10231;47.702;9.826;2023-04-06T02:58:01;0.90;99.90
20141;DHT22;10231;47.702;9.826;2023-04-06T03:00:26;0.90;99.90
20141;DHT22;10231;47.702;9.826;2023-04-06T03:02:52;0.90;99.90
20141;DHT22;10231;47.702;9.826;2023-04-06T03:05:17;0.90;99.90
20141;DHT22;10231;47.702;9.826;2023-04-06T03:07:43;0.80;99.90
20141;DHT22;10231;47.702;9.826;2023-04-06T03:10:09;0.90;99.90
20141;DHT22;10231;47.702;9.826;2023-04-06T03:12:35;0.90;99.90
20141;DHT22;10231;47.702;9.826;2023-04-06T03:15:00;0.80;99.90
20141;DHT22;10231;47.702;9.826;2023-04-06T03:17:26;0.80;99.90
20141;DHT22;10231;47.702;9.826;2023-04-06T03:19:52;0.80;99.90
20141;DHT22;10231;47.702;9.826;2023-04-06T03:22:17;0.70;99.90
20141;DHT22;10231;47.702;9.826;2023-04-06T03:24:43;0.70;99.90
20141;DHT22;10231;47.702;9.826;2023-04-06T03:27:09;0.80;99.90
20141;DHT22;10231;47.702;9.826;2023-04-06T03:29:34;0.70;99.90
20141;DHT22;10231;47.702;9.826;2023-04-06T03:32:00;0.70;99.90
20141;DHT22;10231;47.702;9.826;2023-04-06T03:34:26;0.60;99.90
20141;DHT22;10231;47.702;9.826;2023-04-06T03:36:52;0.50;99.90
20141;DHT22;10231;47.702;9.826;2023-04-06T03:39:17;0.60;99.90
20141;DHT22;10231;47.702;9.826;2023-04-06T03:41:43;0.60;99.90
20141;DHT22;10231;47.702;9.826;2023-04-06T03:44:10;0.50;99.90
20141;DHT22;10231;47.702;9.826;2023-04-06T03:46:35;0.30;99.90
20141;DHT22;10231;47.702;9.826;2023-04-06T03:49:01;0.30;99.90
20141;DHT22;10231;47.702;9.826;2023-04-06T03:51:27;0.40;99.90
20141;DHT22;10231;47.702;9.826;2023-04-06T03:53:56;0.40;99.90
20141;DHT22;10231;47.702;9.826;2023-04-06T03:56:21;0.40;99.90
20141;DHT22;10231;47.702;9.826;2023-04-06T03:58:47;0.40;99.90
20141;DHT22;10231;47.702;9.826;2023-04-06T04:01:19;0.30;99.90
20141;DHT22;10231;47.702;9.826;2023-04-06T04:03:44;0.40;99.90
20141;DHT22;10231;47.702;9.826;2023-04-06T04:06:10;0.40;99.90
20141;DHT22;10231;47.702;9.826;2023-04-06T04:08:35;0.30;99.90
20141;DHT22;10231;47.702;9.826;2023-04-06T04:11:01;0.30;99.90
20141;DHT22;10231;47.702;9.826;2023-04-06T04:13:27;0.30;99.90
20141;DHT22;10231;47.702;9.826;2023-04-06T04:15:52;0.30;99.90
20141;DHT22;10231;47.702;9.826;2023-04-06T04:18:18;0.20;99.90
20141;DHT22;10231;47.702;9.826;2023-04-06T04:20:44;0.30;99.90
20141;DHT22;10231;47.702;9.826;2023-04-06T04:23:10;0.30;99.90
20141;DHT22;10231;47.702;9.826;2023-04-06T04:25:36;0.20;99.90
20141;DHT22;10231;47.702;9.826;2023-04-06T04:28:02;0.10;99.90
20141;DHT22;10231;47.702;9.826;2023-04-06T04:30:27;0.10;99.90
20141;DHT22;10231;47.702;9.826;2023-04-06T04:32:53;0.20;99.90
20141;DHT22;10231;47.702;9.826;2023-04-06T04:35:19;0.30;99.90
20141;DHT22;10231;47.702;9.826;2023-04-06T04:37:45;0.20;99.90
20141;DHT22;10231;47.702;9.826;2023-04-06T04:40:11;0.30;99.90
20141;DHT22;10231;47.702;9.826;2023-04-06T04:42:36;0.40;99.90
20141;DHT22;10231;47.702;9.826;2023-04-06T04:45:02;0.40;99.90
20141;DHT22;10231;47.702;9.826;2023-04-06T04:47:27;0.40;99.90
20141;DHT22;10231;47.702;9.826;2023-04-06T04:49:53;0.40;99.90
20141;DHT22;10231;47.702;9.826;2023-04-06T04:52:18;0.30;99.90
20141;DHT22;10231;47.702;9.826;2023-04-06T04:54:44;0.30;99.90
20141;DHT22;10231;47.702;9.826;2023-04-06T04:57:12;0.30;99.90
20141;DHT22;10231;47.702;9.826;2023-04-06T04:59:37;0.30;99.90
20141;DHT22;10231;47.702;9.826;2023-04-06T05:02:03;0.30;99.90
20141;DHT22;10231;47.702;9.826;2023-04-06T05:04:29;0.40;99.90
20141;DHT22;10231;47.702;9.826;2023-04-06T05:07:14;0.40;99.90
20141;DHT22;10231;47.702;9.826;2023-04-06T05:09:40;0.40;99.90
20141;DHT22;10231;47.702;9.826;2023-04-06T05:12:06;0.40;99.90
20141;DHT22;10231;47.702;9.826;2023-04-06T05:14:32;0.50;99.90
20141;DHT22;10231;47.702;9.826;2023-04-06T05:16:58;0.30;99.90
20141;DHT22;10231;47.702;9.826;2023-04-06T05:19:23;0.30;99.90
20141;DHT22;10231;47.702;9.826;2023-04-06T05:21:49;0.30;99.90
20141;DHT22;10231;47.702;9.826;2023-04-06T05:24:15;0.30;99.90
20141;DHT22;10231;47.702;9.826;2023-04-06T05:26:40;0.30;99.90
20141;DHT22;10231;47.702;9.826;2023-04-06T05:29:07;0.40;99.90
20141;DHT22;10231;47.702;9.826;2023-04-06T05:31:32;0.40;99.90
20141;DHT22;10231;47.702;9.826;2023-04-06T05:33:58;0.40;99.90
20141;DHT22;10231;47.702;9.826;2023-04-06T05:36:23;0.30;99.90
20141;DHT22;10231;47.702;9.826;2023-04-06T05:38:49;0.30;99.90
20141;DHT22;10231;47.702;9.826;2023-04-06T05:41:16;0.40;99.90
20141;DHT22;10231;47.702;9.826;2023-04-06T05:43:41;0.40;99.90
20141;DHT22;10231;47.702;9.826;2023-04-06T05:46:07;0.40;99.90
20141;DHT22;10231;47.702;9.826;2023-04-06T05:48:33;0.50;99.90
20141;DHT22;10231;47.702;9.826;2023-04-06T05:50:58;0.50;99.90
20141;DHT22;10231;47.702;9.826;2023-04-06T05:53:25;0.40;99.90
20141;DHT22;10231;47.702;9.826;2023-04-06T05:55:51;0.40;99.90
20141;DHT22;10231;47.702;9.826;2023-04-06T05:58:17;0.50;99.90
20141;DHT22;10231;47.702;9.826;2023-04-06T06:00:42;0.50;99.90
20141;DHT22;10231;47.702;9.826;2023-04-06T06:03:08;0.70;99.90
20141;DHT22;10231;47.702;9.826;2023-04-06T06:05:34;0.70;99.90
20141;DHT22;10231;47.702;9.826;2023-04-06T06:08:00;0.80;99.90
20141;DHT22;10231;47.702;9.826;2023-04-06T06:10:27;0.70;99.90
20141;DHT22;10231;47.702;9.826;2023-04-06T06:12:53;0.80;99.90
20141;DHT22;10231;47.702;9.826;2023-04-06T06:15:18;0.80;99.90
20141;DHT22;10231;47.702;9.826;2023-04-06T06:17:44;0.90;99.90
20141;DHT22;10231;47.702;9.826;2023-04-06T06:20:10;0.90;99.90
20141;DHT22;10231;47.702;9.826;2023-04-06T06:22:35;1.00;99.90
20141;DHT22;10231;47.702;9.826;2023-04-06T06:25:02;1.10;99.90
20141;DHT22;10231;47.702;9.826;2023-04-06T06:27:27;1.30;99.90
20141;DHT22;10231;47.702;9.826;2023-04-06T06:29:53;1.40;99.90
20141;DHT22;10231;47.702;9.826;2023-04-06T06:32:18;1.40;99.90
20141;DHT22;10231;47.702;9.826;2023-04-06T06:34:44;1.30;99.90
20141;DHT22;10231;47.702;9.826;2023-04-06T06:37:09;1.40;99.90
20141;DHT22;10231;47.702;9.826;2023-04-06T06:39:35;1.40;99.90
20141;DHT22;10231;47.702;9.826;2023-04-06T06:42:01;1.50;99.90
20141;DHT22;10231;47.702;9.826;2023-04-06T06:44:27;1.70;99.90
20141;DHT22;10231;47.702;9.826;2023-04-06T06:46:53;1.80;99.90
20141;DHT22;10231;47.702;9.826;2023-04-06T06:49:18;1.90;99.90
20141;DHT22;10231;47.702;9.826;2023-04-06T06:51:44;2.00;99.90
20141;DHT22;10231;47.702;9.826;2023-04-06T06:54:12;2.10;99.90
20141;DHT22;10231;47.702;9.826;2023-04-06T06:56:38;2.20;99.90
20141;DHT22;10231;47.702;9.826;2023-04-06T06:59:04;2.20;99.90
20141;DHT22;10231;47.702;9.826;2023-04-06T07:01:32;2.30;99.90
20141;DHT22;10231;47.702;9.826;2023-04-06T07:03:57;2.40;99.90
20141;DHT22;10231;47.702;9.826;2023-04-06T07:06:23;2.50;99.90
20141;DHT22;10231;47.702;9.826;2023-04-06T07:08:48;2.60;99.90
20141;DHT22;10231;47.702;9.826;2023-04-06T07:11:14;2.60;99.90
20141;DHT22;10231;47.702;9.826;2023-04-06T07:13:39;2.70;99.90
20141;DHT22;10231;47.702;9.826;2023-04-06T07:16:05;2.80;99.90
20141;DHT22;10231;47.702;9.826;2023-04-06T07:18:31;2.80;99.90
20141;DHT22;10231;47.702;9.826;2023-04-06T07:20:56;2.90;99.90
20141;DHT22;10231;47.702;9.826;2023-04-06T07:23:22;3.00;99.90
20141;DHT22;10231;47.702;9.826;2023-04-06T07:25:47;3.10;99.90
20141;DHT22;10231;47.702;9.826;2023-04-06T07:28:16;3.30;99.90
20141;DHT22;10231;47.702;9.826;2023-04-06T07:30:42;3.40;99.90
20141;DHT22;10231;47.702;9.826;2023-04-06T07:33:07;3.50;99.90
20141;DHT22;10231;47.702;9.826;2023-04-06T07:35:33;3.60;99.90
20141;DHT22;10231;47.702;9.826;2023-04-06T07:38:00;3.90;99.90
20141;DHT22;10231;47.702;9.826;2023-04-06T07:40:25;4.10;99.90
20141;DHT22;10231;47.702;9.826;2023-04-06T07:42:52;4.20;99.90
20141;DHT22;10231;47.702;9.826;2023-04-06T07:45:18;4.20;99.90
20141;DHT22;10231;47.702;9.826;2023-04-06T07:47:43;4.40;99.90
20141;DHT22;10231;47.702;9.826;2023-04-06T07:50:09;4.40;99.90
20141;DHT22;10231;47.702;9.826;2023-04-06T07:52:35;4.50;99.90
20141;DHT22;10231;47.702;9.826;2023-04-06T07:55:01;4.60;99.90
20141;DHT22;10231;47.702;9.826;2023-04-06T07:57:26;4.70;99.90
20141;DHT22;10231;47.702;9.826;2023-04-06T07:59:52;4.80;99.90
20141;DHT22;10231;47.702;9.826;2023-04-06T08:02:18;4.90;99.90
20141;DHT22;10231;47.702;9.826;2023-04-06T08:04:44;5.00;99.90
20141;DHT22;10231;47.702;9.826;2023-04-06T08:07:09;5.10;99.90
20141;DHT22;10231;47.702;9.826;2023-04-06T08:09:35;5.10;99.90
20141;DHT22;10231;47.702;9.826;2023-04-06T08:12:01;5.20;99.90
20141;DHT22;10231;47.702;9.826;2023-04-06T08:14:26;5.20;99.90
20141;DHT22;10231;47.702;9.826;2023-04-06T08:16:52;5.30;99.90
20141;DHT22;10231;47.702;9.826;2023-04-06T08:19:17;5.40;99.90
20141;DHT22;10231;47.702;9.826;2023-04-06T08:21:47;5.40;99.90
20141;DHT22;10231;47.702;9.826;2023-04-06T08:24:13;5.50;99.90
20141;DHT22;10231;47.702;9.826;2023-04-06T08:26:39;5.50;99.90
20141;DHT22;10231;47.702;9.826;2023-04-06T08:29:04;5.50;99.90
20141;DHT22;10231;47.702;9.826;2023-04-06T08:31:33;5.50;99.90
20141;DHT22;10231;47.702;9.826;2023-04-06T08:33:58;5.60;99.90
20141;DHT22;10231;47.702;9.826;2023-04-06T08:36:24;5.70;99.90
20141;DHT22;10231;47.702;9.826;2023-04-06T08:38:50;5.60;99.90
20141;DHT22;10231;47.702;9.826;2023-04-06T08:41:16;5.60;99.90
20141;DHT22;10231;47.702;9.826;2023-04-06T08:43:49;5.70;99.90
20141;DHT22;10231;47.702;9.826;2023-04-06T08:46:15;5.70;98.90
20141;DHT22;10231;47.702;9.826;2023-04-06T08:48:42;5.70;98.90
20141;DHT22;10231;47.702;9.826;2023-04-06T08:51:09;5.80;99.10
20141;DHT22;10231;47.702;9.826;2023-04-06T08:53:35;5.80;99.70
20141;DHT22;10231;47.702;9.826;2023-04-06T08:56:02;5.90;99.60
20141;DHT22;10231;47.702;9.826;2023-04-06T08:58:35;6.00;99.50
20141;DHT22;10231;47.702;9.826;2023-04-06T09:01:06;6.20;99.70
20141;DHT22;10231;47.702;9.826;2023-04-06T09:03:36;6.30;99.60
20141;DHT22;10231;47.702;9.826;2023-04-06T09:06:02;6.40;98.80
20141;DHT22;10231;47.702;9.826;2023-04-06T09:08:29;6.40;98.00
20141;DHT22;10231;47.702;9.826;2023-04-06T09:10:55;6.50;97.90
20141;DHT22;10231;47.702;9.826;2023-04-06T09:13:21;6.50;96.60
20141;DHT22;10231;47.702;9.826;2023-04-06T09:15:46;6.60;97.00
20141;DHT22;10231;47.702;9.826;2023-04-06T09:18:12;6.50;97.20
20141;DHT22;10231;47.702;9.826;2023-04-06T09:20:37;6.60;95.20
20141;DHT22;10231;47.702;9.826;2023-04-06T09:23:03;6.70;95.10
20141;DHT22;10231;47.702;9.826;2023-04-06T09:25:28;6.70;95.70
20141;DHT22;10231;47.702;9.826;2023-04-06T09:28:03;6.80;95.50
20141;DHT22;10231;47.702;9.826;2023-04-06T09:30:29;6.90;94.90
20141;DHT22;10231;47.702;9.826;2023-04-06T09:32:57;7.00;95.40
20141;DHT22;10231;47.702;9.826;2023-04-06T09:35:23;7.00;93.90
20141;DHT22;10231;47.702;9.826;2023-04-06T09:37:50;7.00;95.00
20141;DHT22;10231;47.702;9.826;2023-04-06T09:40:17;7.10;95.00
20141;DHT22;10231;47.702;9.826;2023-04-06T09:42:48;7.10;93.30
20141;DHT22;10231;47.702;9.826;2023-04-06T09:45:14;7.20;94.00
20141;DHT22;10231;47.702;9.826;2023-04-06T09:47:43;7.30;93.90
20141;DHT22;10231;47.702;9.826;2023-04-06T09:50:11;7.30;93.50
20141;DHT22;10231;47.702;9.826;2023-04-06T09:52:41;7.20;92.50
20141;DHT22;10231;47.702;9.826;2023-04-06T09:55:08;7.20;92.60
20141;DHT22;10231;47.702;9.826;2023-04-06T09:57:52;7.10;92.80
20141;DHT22;10231;47.702;9.826;2023-04-06T10:00:22;7.00;93.00
20141;DHT22;10231;47.702;9.826;2023-04-06T10:02:56;7.10;94.80
20141;DHT22;10231;47.702;9.826;2023-04-06T10:05:33;7.20;94.20
20141;DHT22;10231;47.702;9.826;2023-04-06T10:08:04;7.20;93.80
20141;DHT22;10231;47.702;9.826;2023-04-06T10:10:31;7.30;93.90
20141;DHT22;10231;47.702;9.826;2023-04-06T10:12:57;7.50;93.30
20141;DHT22;10231;47.702;9.826;2023-04-06T10:15:23;7.60;91.80
20141;DHT22;10231;47.702;9.826;2023-04-06T10:17:49;7.50;91.70
20141;DHT22;10231;47.702;9.826;2023-04-06T10:20:24;7.40;91.40
20141;DHT22;10231;47.702;9.826;2023-04-06T10:23:08;7.40;91.60
20141;DHT22;10231;47.702;9.826;2023-04-06T10:25:35;7.30;91.50
20141;DHT22;10231;47.702;9.826;2023-04-06T10:28:05;7.50;91.20
20141;DHT22;10231;47.702;9.826;2023-04-06T10:30:32;7.50;90.20
20141;DHT22;10231;47.702;9.826;2023-04-06T10:32:58;7.50;90.00
20141;DHT22;10231;47.702;9.826;2023-04-06T10:35:24;7.60;90.20
20141;DHT22;10231;47.702;9.826;2023-04-06T10:38:02;7.70;90.60
20141;DHT22;10231;47.702;9.826;2023-04-06T10:40:28;7.80;92.00
20141;DHT22;10231;47.702;9.826;2023-04-06T10:42:55;7.80;90.80
20141;DHT22;10231;47.702;9.826;2023-04-06T10:45:25;7.80;90.70
20141;DHT22;10231;47.702;9.826;2023-04-06T10:47:52;7.80;90.10
20141;DHT22;10231;47.702;9.826;2023-04-06T10:50:18;8.00;90.10
20141;DHT22;10231;47.702;9.826;2023-04-06T10:52:58;8.10;90.50
20141;DHT22;10231;47.702;9.826;2023-04-06T10:55:26;8.20;89.10
20141;DHT22;10231;47.702;9.826;2023-04-06T10:57:53;8.20;90.90
20141;DHT22;10231;47.702;9.826;2023-04-06T11:00:19;8.30;91.90
20141;DHT22;10231;47.702;9.826;2023-04-06T11:02:45;8.40;91.50
20141;DHT22;10231;47.702;9.826;2023-04-06T11:05:11;8.40;90.70
20141;DHT22;10231;47.702;9.826;2023-04-06T11:07:39;8.40;90.10
20141;DHT22;10231;47.702;9.826;2023-04-06T11:10:06;8.30;90.00
20141;DHT22;10231;47.702;9.826;2023-04-06T11:12:31;8.40;90.00
20141;DHT22;10231;47.702;9.826;2023-04-06T11:14:59;8.50;90.80
20141;DHT22;10231;47.702;9.826;2023-04-06T11:17:31;8.50;90.80
20141;DHT22;10231;47.702;9.826;2023-04-06T11:19:57;8.60;91.40
20141;DHT22;10231;47.702;9.826;2023-04-06T11:22:24;8.60;90.00
20141;DHT22;10231;47.702;9.826;2023-04-06T11:24:49;8.50;85.50
20141;DHT22;10231;47.702;9.826;2023-04-06T11:27:16;8.50;88.20
20141;DHT22;10231;47.702;9.826;2023-04-06T11:29:42;8.50;84.90
20141;DHT22;10231;47.702;9.826;2023-04-06T11:32:08;8.40;85.00
20141;DHT22;10231;47.702;9.826;2023-04-06T11:34:36;8.40;85.20
20141;DHT22;10231;47.702;9.826;2023-04-06T11:37:04;8.50;83.40
20141;DHT22;10231;47.702;9.826;2023-04-06T11:39:36;8.60;84.20
20141;DHT22;10231;47.702;9.826;2023-04-06T11:42:03;8.70;83.70
20141;DHT22;10231;47.702;9.826;2023-04-06T11:44:33;8.70;83.10
20141;DHT22;10231;47.702;9.826;2023-04-06T11:47:00;8.80;85.50
20141;DHT22;10231;47.702;9.826;2023-04-06T11:49:27;8.90;84.40
20141;DHT22;10231;47.702;9.826;2023-04-06T11:51:54;9.00;81.10
20141;DHT22;10231;47.702;9.826;2023-04-06T11:54:37;8.90;80.70
20141;DHT22;10231;47.702;9.826;2023-04-06T11:57:05;8.90;81.00
20141;DHT22;10231;47.702;9.826;2023-04-06T11:59:31;8.80;79.80
20141;DHT22;10231;47.702;9.826;2023-04-06T12:01:57;8.70;81.10
20141;DHT22;10231;47.702;9.826;2023-04-06T12:04:23;8.80;82.80
20141;DHT22;10231;47.702;9.826;2023-04-06T12:06:49;8.90;83.50
20141;DHT22;10231;47.702;9.826;2023-04-06T12:09:16;9.00;80.80
20141;DHT22;10231;47.702;9.826;2023-04-06T12:11:42;8.90;80.10
20141;DHT22;10231;47.702;9.826;2023-04-06T12:14:08;8.80;80.40
20141;DHT22;10231;47.702;9.826;2023-04-06T12:16:34;8.90;83.30
20141;DHT22;10231;47.702;9.826;2023-04-06T12:19:00;9.00;83.20
20141;DHT22;10231;47.702;9.826;2023-04-06T12:21:30;9.20;82.40
20141;DHT22;10231;47.702;9.826;2023-04-06T12:23:57;9.10;81.40
20141;DHT22;10231;47.702;9.826;2023-04-06T12:26:22;9.20;82.80
20141;DHT22;10231;47.702;9.826;2023-04-06T12:28:48;9.10;81.70
20141;DHT22;10231;47.702;9.826;2023-04-06T12:31:21;9.10;81.70
20141;DHT22;10231;47.702;9.826;2023-04-06T12:33:49;9.10;81.60
20141;DHT22;10231;47.702;9.826;2023-04-06T12:36:16;9.20;79.60
20141;DHT22;10231;47.702;9.826;2023-04-06T12:38:44;9.20;80.80
20141;DHT22;10231;47.702;9.826;2023-04-06T12:41:11;9.30;82.80
20141;DHT22;10231;47.702;9.826;2023-04-06T12:43:37;9.50;81.20
20141;DHT22;10231;47.702;9.826;2023-04-06T12:46:03;9.60;82.90
20141;DHT22;10231;47.702;9.826;2023-04-06T12:48:28;9.70;83.10
20141;DHT22;10231;47.702;9.826;2023-04-06T12:51:02;9.70;79.60
20141;DHT22;10231;47.702;9.826;2023-04-06T12:53:27;9.80;79.20
20141;DHT22;10231;47.702;9.826;2023-04-06T12:55:56;9.80;77.90
20141;DHT22;10231;47.702;9.826;2023-04-06T12:58:24;9.90;78.30
20141;DHT22;10231;47.702;9.826;2023-04-06T13:00:52;9.90;79.80
20141;DHT22;10231;47.702;9.826;2023-04-06T13:03:18;10.00;78.80
20141;DHT22;10231;47.702;9.826;2023-04-06T13:05:48;10.10;75.80
20141;DHT22;10231;47.702;9.826;2023-04-06T13:08:14;10.20;79.10
20141;DHT22;10231;47.702;9.826;2023-04-06T13:10:50;10.50;79.10
20141;DHT22;10231;47.702;9.826;2023-04-06T13:13:21;10.60;76.20
20141;DHT22;10231;47.702;9.826;2023-04-06T13:15:47;10.60;75.90
20141;DHT22;10231;47.702;9.826;2023-04-06T13:18:13;10.50;74.40
20141;DHT22;10231;47.702;9.826;2023-04-06T13:20:38;10.70;75.30
20141;DHT22;10231;47.702;9.826;2023-04-06T13:23:04;10.80;75.90
20141;DHT22;10231;47.702;9.826;2023-04-06T13:25:30;10.90;73.20
20141;DHT22;10231;47.702;9.826;2023-04-06T13:27:58;11.00;71.00
20141;DHT22;10231;47.702;9.826;2023-04-06T13:30:23;10.90;72.10
20141;DHT22;10231;47.702;9.826;2023-04-06T13:32:49;11.00;74.40
20141;DHT22;10231;47.702;9.826;2023-04-06T13:35:15;11.10;73.00
20141;DHT22;10231;47.702;9.826;2023-04-06T13:37:41;11.20;72.50
20141;DHT22;10231;47.702;9.826;2023-04-06T13:40:08;11.40;72.80
20141;DHT22;10231;47.702;9.826;2023-04-06T13:42:33;11.40;71.90
20141;DHT22;10231;47.702;9.826;2023-04-06T13:45:00;11.60;72.50
20141;DHT22;10231;47.702;9.826;2023-04-06T13:47:26;11.60;70.00
20141;DHT22;10231;47.702;9.826;2023-04-06T13:49:51;11.50;69.40
20141;DHT22;10231;47.702;9.826;2023-04-06T13:52:18;11.60;69.10
20141;DHT22;10231;47.702;9.826;2023-04-06T13:54:44;11.60;68.80
20141;DHT22;10231;47.702;9.826;2023-04-06T13:57:10;11.80;66.10
20141;DHT22;10231;47.702;9.826;2023-04-06T13:59:36;11.70;65.90
20141;DHT22;10231;47.702;9.826;2023-04-06T14:02:07;11.70;67.10
20141;DHT22;10231;47.702;9.826;2023-04-06T14:04:33;11.70;67.50
20141;DHT22;10231;47.702;9.826;2023-04-06T14:07:00;11.90;67.90
20141;DHT22;10231;47.702;9.826;2023-04-06T14:09:27;12.00;67.00
20141;DHT22;10231;47.702;9.826;2023-04-06T14:11:53;12.10;67.10
20141;DHT22;10231;47.702;9.826;2023-04-06T14:14:19;12.10;63.50
20141;DHT22;10231;47.702;9.826;2023-04-06T14:16:44;12.10;63.10
20141;DHT22;10231;47.702;9.826;2023-04-06T14:19:11;12.20;62.40
20141;DHT22;10231;47.702;9.826;2023-04-06T14:21:38;12.30;59.40
20141;DHT22;10231;47.702;9.826;2023-04-06T14:24:06;12.30;59.30
20141;DHT22;10231;47.702;9.826;2023-04-06T14:26:31;12.50;59.00
20141;DHT22;10231;47.702;9.826;2023-04-06T14:28:58;12.80;59.40
20141;DHT22;10231;47.702;9.826;2023-04-06T14:31:24;13.00;59.40
20141;DHT22;10231;47.702;9.826;2023-04-06T14:33:49;13.30;58.50
20141;DHT22;10231;47.702;9.826;2023-04-06T14:36:15;13.50;59.50
20141;DHT22;10231;47.702;9.826;2023-04-06T14:38:41;13.70;58.40
20141;DHT22;10231;47.702;9.826;2023-04-06T14:41:08;13.50;59.70
20141;DHT22;10231;47.702;9.826;2023-04-06T14:43:35;13.50;57.90
20141;DHT22;10231;47.702;9.826;2023-04-06T14:46:01;13.40;57.00
20141;DHT22;10231;47.702;9.826;2023-04-06T14:48:27;13.60;56.10
20141;DHT22;10231;47.702;9.826;2023-04-06T14:50:56;13.80;56.90
20141;DHT22;10231;47.702;9.826;2023-04-06T14:53:23;14.10;56.40
20141;DHT22;10231;47.702;9.826;2023-04-06T14:55:49;14.30;55.30
20141;DHT22;10231;47.702;9.826;2023-04-06T14:58:21;14.60;54.30
20141;DHT22;10231;47.702;9.826;2023-04-06T15:00:47;15.00;54.10
20141;DHT22;10231;47.702;9.826;2023-04-06T15:03:13;15.10;49.90
20141;DHT22;10231;47.702;9.826;2023-04-06T15:05:39;15.20;50.30
20141;DHT22;10231;47.702;9.826;2023-04-06T15:08:04;15.30;51.80
20141;DHT22;10231;47.702;9.826;2023-04-06T15:10:33;14.90;51.60
20141;DHT22;10231;47.702;9.826;2023-04-06T15:12:59;14.70;51.90
20141;DHT22;10231;47.702;9.826;2023-04-06T15:15:25;14.30;50.30
20141;DHT22;10231;47.702;9.826;2023-04-06T15:17:51;14.20;51.00
20141;DHT22;10231;47.702;9.826;2023-04-06T15:20:17;13.90;51.90
20141;DHT22;10231;47.702;9.826;2023-04-06T15:22:42;13.70;52.60
20141;DHT22;10231;47.702;9.826;2023-04-06T15:25:08;13.70;52.10
20141;DHT22;10231;47.702;9.826;2023-04-06T15:27:34;13.70;52.20
20141;DHT22;10231;47.702;9.826;2023-04-06T15:29:59;13.50;52.60
20141;DHT22;10231;47.702;9.826;2023-04-06T15:32:25;13.40;54.00
20141;DHT22;10231;47.702;9.826;2023-04-06T15:34:53;13.30;54.50
20141;DHT22;10231;47.702;9.826;2023-04-06T15:37:18;13.40;55.30